LFRU/MXN METAR and TAF weather

Enter ICAO airport designator
Station Type Date Time Source
LFRU METAR 2020/09/20 20:00 UTC NOAA

LFRU 202000Z AUTO VRB02KT 7000 OVC009 17/16 Q1017


Station Type Date Time Source
LFRU Decoded METAR 2020/09/20 20:00 UTC NOAA

Morlaix / Ploujean, France (LFRU) 48-36N 003-49W
Sep 20, 2020 - 04:00 PM EDT / 2020.09.20 2000 UTC
Wind: Variable at 2 MPH (2 KT):0
Visibility: 4 mile(s):0
Sky conditions: overcast
Temperature: 62 F (17 C)
Dew Point: 60 F (16 C)
Relative Humidity: 93%
Pressure (altimeter): 30.03 in. Hg (1017 hPa)
ob: LFRU 202000Z AUTO VRB02KT 7000 OVC009 17/16 Q1017
cycle: 20

Station Type Date Time Source
LFRU TAF UTC NOAA

Error!

Example: see airport list